Time;durP1;ratioP1;P1;durP2;ratioP2;P2;SDS_P1;SDS_P2;PMS_P1;PMS_P2;Temp;Humidity;BMP_temperature;BMP_pressure;BME280_temperature;BME280_humidity;BME280_pressure;Samples;Min_cycle;Max_cycle;Signal;HPM_P1;HPM_P2
2022/03/28 00:08:49;;;;;;;25.65;11.98;;;11.40;99.90;;;;;;6680166;89;20171;-83
2022/03/28 00:18:49;;;;;;;24.02;12.25;;;11.10;99.90;;;;;;6679309;88;20205;-82
2022/03/28 00:28:50;;;;;;;25.27;12.27;;;11.00;99.90;;;;;;6680001;88;20204;-83
2022/03/28 00:38:51;;;;;;;26.87;13.27;;;10.60;99.90;;;;;;6680552;89;20519;-83
2022/03/28 00:48:53;;;;;;;23.45;12.18;;;10.50;99.90;;;;;;6683798;88;20165;-83
2022/03/28 00:58:54;;;;;;;30.65;13.50;;;10.20;99.90;;;;;;6678288;89;20213;-82
2022/03/28 01:08:55;;;;;;;28.48;12.48;;;10.10;99.90;;;;;;6677779;89;20171;-81
2022/03/28 01:18:56;;;;;;;30.70;13.50;;;10.00;99.90;;;;;;6677538;89;20261;-82
2022/03/28 01:28:57;;;;;;;27.80;12.60;;;10.00;99.90;;;;;;6734563;88;20866;-82
2022/03/28 01:38:58;;;;;;;26.48;13.25;;;9.90;99.90;;;;;;6730980;88;20258;-82
2022/03/28 01:48:59;;;;;;;28.33;13.05;;;9.80;99.90;;;;;;6730703;88;20758;-82
2022/03/28 01:59:00;;;;;;;29.37;12.93;;;9.50;99.90;;;;;;6690589;88;20223;-81
2022/03/28 02:09:02;;;;;;;24.52;12.50;;;9.40;99.90;;;;;;6679420;89;20166;-82
2022/03/28 02:19:02;;;;;;;29.33;12.95;;;9.10;99.90;;;;;;6679374;88;20272;-83
2022/03/28 02:29:03;;;;;;;27.65;12.95;;;9.10;99.90;;;;;;6679090;89;20180;-82
2022/03/28 02:49:09;;;;;;;28.30;12.52;;;8.80;99.90;;;;;;6726989;87;20209;-82
2022/03/28 02:59:09;;;;;;;27.50;13.18;;;8.70;99.90;;;;;;6784341;87;20253;-83
2022/03/28 03:09:10;;;;;;;26.40;13.15;;;8.10;99.90;;;;;;6784363;87;20188;-83
2022/03/28 03:19:10;;;;;;;26.75;14.05;;;8.10;99.90;;;;;;6747627;88;20279;-83
2022/03/28 03:29:11;;;;;;;28.33;13.75;;;8.00;99.90;;;;;;6747448;88;20248;-83
2022/03/28 03:39:12;;;;;;;26.27;13.02;;;8.10;99.90;;;;;;6748818;88;20194;-83
2022/03/28 03:49:13;;;;;;;33.08;13.85;;;8.30;99.90;;;;;;6775406;87;20245;-84
2022/03/28 03:59:13;;;;;;;29.45;13.62;;;8.60;99.90;;;;;;6782705;87;20180;-84
2022/03/28 04:09:14;;;;;;;26.35;12.55;;;8.30;99.90;;;;;;6786495;87;20857;-84
2022/03/28 04:19:15;;;;;;;28.17;13.52;;;7.90;99.90;;;;;;6786333;87;20148;-84
2022/03/28 04:29:15;;;;;;;28.17;14.38;;;8.10;99.90;;;;;;6786335;87;20239;-84
2022/03/28 04:39:16;;;;;;;26.15;12.98;;;7.70;99.90;;;;;;6786543;87;20317;-84
2022/03/28 04:49:17;;;;;;;26.27;13.52;;;7.60;99.90;;;;;;6768360;87;20259;-84
2022/03/28 04:59:17;;;;;;;27.67;13.62;;;7.70;99.90;;;;;;6768658;87;20178;-83
2022/03/28 05:09:18;;;;;;;28.95;14.13;;;7.80;99.90;;;;;;6768284;87;20228;-84
2022/03/28 05:19:19;;;;;;;30.15;13.88;;;7.40;99.90;;;;;;6768289;87;20254;-84
2022/03/28 05:29:23;;;;;;;30.58;13.80;;;7.40;99.90;;;;;;6768158;87;21400;-84
2022/03/28 05:39:24;;;;;;;27.73;13.43;;;7.20;99.90;;;;;;6766048;88;20184;-84
2022/03/28 05:49:25;;;;;;;30.52;14.00;;;7.30;99.90;;;;;;6765815;88;20176;-86
2022/03/28 05:59:26;;;;;;;28.25;13.57;;;7.20;99.90;;;;;;6765424;87;20994;-83
2022/03/28 06:30:14;;;;;;;27.37;13.52;;;7.50;99.90;;;;;;6790105;77;20212;-81
2022/03/28 06:40:56;;;;;;;27.08;14.05;;;7.70;99.90;;;;;;6717371;77;20181;-82
2022/03/28 06:50:56;;;;;;;23.90;12.48;;;8.00;99.90;;;;;;6762131;88;20208;-79
2022/03/28 07:00:57;;;;;;;32.20;14.27;;;8.60;99.90;;;;;;6762297;88;20283;-80
2022/03/28 07:10:58;;;;;;;28.83;14.52;;;9.30;99.90;;;;;;6760836;88;20286;-80
2022/03/28 07:20:58;;;;;;;26.98;14.02;;;9.90;99.90;;;;;;6757431;88;20279;-79
2022/03/28 07:30:59;;;;;;;26.33;14.30;;;10.60;99.90;;;;;;6754490;88;20224;-79
2022/03/28 07:41:00;;;;;;;27.90;15.52;;;11.30;99.90;;;;;;6755172;88;20176;-80
2022/03/28 07:51:00;;;;;;;23.87;13.20;;;12.00;99.90;;;;;;6755101;88;20230;-79
2022/03/28 08:01:01;;;;;;;25.73;13.73;;;12.70;99.90;;;;;;6751578;88;20224;-78
2022/03/28 08:11:02;;;;;;;24.42;13.73;;;13.20;99.90;;;;;;6756033;88;20796;-79
2022/03/28 08:21:03;;;;;;;24.33;12.77;;;13.70;99.90;;;;;;6758012;88;20197;-79
2022/03/28 08:31:03;;;;;;;25.95;13.32;;;14.30;99.90;;;;;;6755197;88;20188;-80
2022/03/28 08:41:04;;;;;;;22.50;13.47;;;14.90;99.90;;;;;;6753515;88;20205;-80
2022/03/28 08:51:05;;;;;;;22.92;12.50;;;15.50;99.90;;;;;;6748269;88;21064;-80
2022/03/28 09:01:06;;;;;;;19.98;12.25;;;16.50;99.90;;;;;;6748524;88;20302;-81
2022/03/28 09:11:20;;;;;;;26.10;12.25;;;17.60;99.90;;;;;;6749120;88;20671;-81
2022/03/28 09:21:25;;;;;;;29.40;13.10;;;18.40;99.90;;;;;;6750755;88;20244;-80
2022/03/28 09:31:27;;;;;;;21.87;12.10;;;18.80;99.90;;;;;;6748558;88;20571;-80
2022/03/28 09:41:28;;;;;;;18.50;11.30;;;19.70;99.90;;;;;;6748933;88;20212;-81
2022/03/28 09:51:31;;;;;;;17.65;11.07;;;21.00;98.10;;;;;;6750123;88;20193;-80
2022/03/28 10:01:35;;;;;;;18.02;10.38;;;21.50;95.90;;;;;;6748007;88;20204;-80
2022/03/28 10:11:36;;;;;;;20.12;11.35;;;22.10;92.40;;;;;;6747539;88;20211;-81
2022/03/28 10:21:38;;;;;;;21.60;11.25;;;22.50;91.50;;;;;;6748575;88;20675;-81
2022/03/28 10:31:59;;;;;;;20.33;12.10;;;22.80;89.60;;;;;;6747612;88;20180;-80
2022/03/28 10:42:23;;;;;;;17.25;10.82;;;23.60;86.70;;;;;;6745383;88;20204;-80
2022/03/28 10:52:24;;;;;;;20.45;11.20;;;23.90;81.50;;;;;;6745157;88;20185;-80
2022/03/28 11:02:30;;;;;;;21.55;10.77;;;24.00;78.90;;;;;;6741297;88;20720;-81
2022/03/28 11:12:42;;;;;;;20.42;10.75;;;24.90;75.10;;;;;;6743973;88;20219;-80
2022/03/28 11:22:50;;;;;;;23.85;13.30;;;25.10;73.00;;;;;;6743298;88;20200;-81
2022/03/28 11:32:54;;;;;;;18.87;11.25;;;25.20;73.00;;;;;;6744144;88;20695;-80
2022/03/28 11:42:56;;;;;;;22.00;11.98;;;26.00;71.00;;;;;;6743758;88;20185;-81
2022/03/28 11:52:57;;;;;;;24.73;11.75;;;26.40;68.10;;;;;;6743363;88;20210;-81
2022/03/28 12:02:59;;;;;;;19.90;11.60;;;26.80;67.20;;;;;;6741546;88;20219;-80
2022/03/28 12:13:08;;;;;;;26.17;12.83;;;27.00;65.80;;;;;;6742169;88;20213;-80
2022/03/28 12:23:10;;;;;;;22.15;12.70;;;27.00;64.80;;;;;;6745762;88;20589;-81
2022/03/28 12:33:12;;;;;;;22.33;12.67;;;26.90;65.80;;;;;;6746909;88;20265;-80
2022/03/28 12:43:14;;;;;;;22.60;12.57;;;27.00;63.70;;;;;;6746561;88;20187;-81
2022/03/28 12:53:16;;;;;;;20.40;11.27;;;27.30;63.40;;;;;;6755269;88;20184;-81
2022/03/28 13:03:28;;;;;;;22.37;12.13;;;27.30;61.00;;;;;;6745752;88;20226;-81
2022/03/28 13:13:35;;;;;;;24.80;12.07;;;26.10;60.70;;;;;;6745321;88;20188;-81
2022/03/28 13:23:36;;;;;;;21.75;10.88;;;25.20;63.40;;;;;;6744728;88;20264;-79
2022/03/28 13:33:36;;;;;;;22.27;11.67;;;25.10;62.70;;;;;;6745119;88;20678;-80
2022/03/28 13:43:37;;;;;;;18.45;9.77;;;24.90;63.30;;;;;;6746299;88;20335;-81
2022/03/28 13:53:39;;;;;;;16.40;8.50;;;25.50;61.60;;;;;;6743087;88;20854;-81
2022/03/28 14:03:39;;;;;;;15.88;8.52;;;26.40;59.20;;;;;;6744094;88;20560;-80
2022/03/28 14:13:40;;;;;;;17.70;8.85;;;25.60;58.00;;;;;;6744596;88;20225;-80
2022/03/28 14:23:44;;;;;;;17.83;9.70;;;25.20;58.20;;;;;;6743687;88;20220;-80
2022/03/28 14:33:45;;;;;;;19.75;10.10;;;24.60;57.60;;;;;;6743744;88;20221;-80
2022/03/28 14:44:26;;;;;;;15.07;9.07;;;24.10;58.40;;;;;;6759136;77;20298;-82
2022/03/28 14:54:27;;;;;;;21.37;11.68;;;23.80;58.40;;;;;;6732865;88;20269;-80
2022/03/28 15:04:28;;;;;;;23.25;11.65;;;23.40;61.40;;;;;;6735337;88;20188;-80
2022/03/28 15:14:28;;;;;;;27.47;13.30;;;22.90;63.10;;;;;;6736047;88;20179;-82
2022/03/28 15:24:30;;;;;;;26.47;13.30;;;22.40;65.00;;;;;;6744200;88;20234;-81
2022/03/28 15:34:30;;;;;;;25.80;14.48;;;21.90;66.60;;;;;;6738423;88;20528;-81
2022/03/28 15:44:31;;;;;;;27.02;13.90;;;21.50;68.00;;;;;;6736263;88;20190;-81
2022/03/28 15:54:31;;;;;;;26.55;13.73;;;21.50;67.90;;;;;;6736019;88;20199;-81
2022/03/28 16:04:32;;;;;;;32.28;15.13;;;21.00;67.80;;;;;;6720363;88;20187;-80
2022/03/28 16:14:33;;;;;;;31.70;14.63;;;20.60;68.40;;;;;;6726575;88;20676;-83
2022/03/28 16:24:33;;;;;;;28.73;13.80;;;20.20;68.10;;;;;;6714663;88;20166;-83
2022/03/28 16:34:34;;;;;;;30.03;14.17;;;20.00;67.70;;;;;;6748559;88;20893;-82
2022/03/28 16:44:34;;;;;;;29.95;14.57;;;19.80;67.40;;;;;;6731528;88;20608;-82
2022/03/28 16:54:35;;;;;;;30.55;13.65;;;19.40;68.10;;;;;;6739313;88;20174;-84
2022/03/28 17:04:36;;;;;;;33.53;15.07;;;19.10;68.30;;;;;;6748619;88;20794;-80
2022/03/28 17:14:37;;;;;;;36.60;16.17;;;18.90;68.90;;;;;;6740738;88;20232;-81
2022/03/28 17:24:37;;;;;;;34.80;16.93;;;18.50;70.60;;;;;;6743224;88;20155;-79
2022/03/28 17:34:38;;;;;;;35.80;16.92;;;18.50;71.60;;;;;;6743576;88;20925;-80
2022/03/28 17:44:40;;;;;;;33.73;17.37;;;18.20;72.60;;;;;;6748881;88;20171;-83
2022/03/28 17:54:43;;;;;;;37.13;19.58;;;17.80;73.20;;;;;;6728828;88;21529;-83
2022/03/28 18:04:43;;;;;;;34.75;17.65;;;17.40;74.00;;;;;;6732419;88;20271;-82
2022/03/28 18:14:44;;;;;;;36.13;17.77;;;17.20;74.30;;;;;;6729264;88;20283;-82
2022/03/28 18:24:45;;;;;;;37.78;17.70;;;16.90;75.40;;;;;;6739018;88;20197;-82
2022/03/28 18:34:46;;;;;;;37.25;17.55;;;16.70;76.00;;;;;;6740744;88;20635;-83
2022/03/28 18:44:47;;;;;;;32.63;17.07;;;16.40;77.10;;;;;;6742782;88;20204;-83
2022/03/28 18:54:47;;;;;;;41.03;18.67;;;16.20;77.90;;;;;;6739626;88;20585;-82
2022/03/28 19:04:48;;;;;;;36.58;17.90;;;15.80;79.30;;;;;;6736561;88;20689;-82
2022/03/28 19:14:49;;;;;;;37.40;17.57;;;15.70;80.60;;;;;;6739632;88;20197;-82
2022/03/28 19:24:49;;;;;;;38.08;18.52;;;15.50;81.50;;;;;;6758966;88;20227;-82
2022/03/28 19:34:50;;;;;;;38.80;17.95;;;15.30;82.30;;;;;;6760260;88;20491;-82
2022/03/28 19:44:50;;;;;;;37.70;18.73;;;15.00;83.70;;;;;;6757669;88;20206;-83
2022/03/28 19:54:51;;;;;;;38.75;18.37;;;14.80;85.60;;;;;;6757559;88;20630;-82
2022/03/28 20:04:52;;;;;;;40.42;18.52;;;14.50;88.10;;;;;;6765452;88;20184;-81
2022/03/28 20:14:53;;;;;;;36.90;18.15;;;14.30;91.20;;;;;;6762304;88;20164;-82
2022/03/28 20:24:54;;;;;;;41.00;18.65;;;14.20;94.10;;;;;;6764626;88;20209;-82
2022/03/28 20:34:54;;;;;;;43.17;19.15;;;14.20;96.90;;;;;;6730487;88;20640;-80
2022/03/28 20:44:55;;;;;;;36.83;18.05;;;13.90;99.90;;;;;;6738450;88;20189;-80
2022/03/28 20:54:56;;;;;;;34.88;16.60;;;13.70;99.90;;;;;;6738442;88;20211;-80
2022/03/28 21:04:56;;;;;;;34.45;16.95;;;13.60;99.90;;;;;;6731648;88;20181;-79
2022/03/28 21:14:57;;;;;;;33.10;16.52;;;13.50;99.90;;;;;;6722435;88;20197;-80
2022/03/28 21:25:01;;;;;;;37.40;17.73;;;13.70;99.90;;;;;;6725434;88;20189;-81
2022/03/28 21:35:03;;;;;;;35.55;16.95;;;13.60;99.90;;;;;;6736925;88;20190;-81
2022/03/28 21:45:05;;;;;;;39.40;17.55;;;13.40;99.90;;;;;;6740181;88;20254;-82
2022/03/28 21:55:07;;;;;;;34.13;16.98;;;13.20;99.90;;;;;;6684571;89;20223;-81
2022/03/28 22:05:07;;;;;;;33.10;16.30;;;13.00;99.90;;;;;;6684690;88;20208;-82
2022/03/28 22:15:08;;;;;;;37.33;16.80;;;13.00;99.90;;;;;;6621725;89;20197;-81
2022/03/28 22:25:09;;;;;;;33.35;17.55;;;12.70;99.90;;;;;;6714495;88;20570;-82
2022/03/28 22:35:10;;;;;;;37.20;18.12;;;12.70;99.90;;;;;;6739839;88;20181;-81
2022/03/28 22:45:11;;;;;;;42.13;18.67;;;12.40;99.90;;;;;;6740607;88;20625;-81
2022/03/28 22:55:12;;;;;;;38.22;18.77;;;12.30;99.90;;;;;;6739014;88;20178;-82
2022/03/28 23:05:13;;;;;;;38.20;17.77;;;12.30;99.90;;;;;;6738712;88;20205;-81
2022/03/28 23:15:14;;;;;;;35.33;16.97;;;12.30;99.90;;;;;;6704103;89;20846;-81
2022/03/28 23:25:15;;;;;;;39.03;18.00;;;12.30;99.90;;;;;;6715887;88;20182;-81
2022/03/28 23:35:16;;;;;;;37.90;17.55;;;12.20;99.90;;;;;;6724910;88;20197;-81
2022/03/28 23:45:17;;;;;;;38.08;17.17;;;12.00;99.90;;;;;;6723701;88;20170;-81
2022/03/28 23:55:19;;;;;;;34.45;17.62;;;11.90;99.90;;;;;;6728686;88;20244;-82
